createdAt,value
2023-01-27T00:00:59.515Z,101450.00
2023-01-27T00:03:27.213Z,101456.00
2023-01-27T00:05:56.198Z,101461.00
2023-01-27T00:08:23.853Z,101459.00
2023-01-27T00:11:11.562Z,101455.00
2023-01-27T00:13:38.280Z,101455.00
2023-01-27T00:16:06.567Z,101443.00
2023-01-27T00:18:34.319Z,101450.00
2023-01-27T00:21:20.882Z,101449.00
2023-01-27T00:24:06.320Z,101444.00
2023-01-27T00:26:34.013Z,101438.00
2023-01-27T00:29:01.678Z,101449.00
2023-01-27T00:31:46.939Z,101440.00
2023-01-27T00:34:14.695Z,101444.00
2023-01-27T00:36:43.660Z,101431.00
2023-01-27T00:39:13.047Z,101440.00
2023-01-27T00:41:41.452Z,101436.00
2023-01-27T00:44:12.945Z,101447.00
2023-01-27T00:46:41.146Z,101440.00
2023-01-27T00:49:09.277Z,101444.00
2023-01-27T00:51:37.006Z,101442.00
2023-01-27T00:54:06.717Z,101431.00
2023-01-27T00:56:34.904Z,101444.00
2023-01-27T00:59:02.718Z,101454.00
2023-01-27T01:01:30.591Z,101458.00
2023-01-27T01:03:59.296Z,101459.00
2023-01-27T01:06:27.568Z,101463.00
2023-01-27T01:08:57.579Z,101472.00
2023-01-27T01:11:27.123Z,101470.00
2023-01-27T01:13:56.429Z,101469.00
2023-01-27T01:16:25.944Z,101471.00
2023-01-27T01:18:54.250Z,101475.00
2023-01-27T01:21:21.960Z,101473.00
2023-01-27T01:23:49.722Z,101479.00
2023-01-27T01:26:18.620Z,101484.00
2023-01-27T01:28:48.002Z,101494.00
2023-01-27T01:31:17.554Z,101499.00
2023-01-27T01:33:45.556Z,101492.00
2023-01-27T01:36:15.695Z,101482.00
2023-01-27T01:38:43.764Z,101488.00
2023-01-27T01:41:13.750Z,101480.00
2023-01-27T01:43:41.586Z,101491.00
2023-01-27T01:46:12.275Z,101479.00
2023-01-27T01:48:44.356Z,101488.00
2023-01-27T01:51:15.791Z,101480.00
2023-01-27T01:53:48.674Z,101484.00
2023-01-27T01:56:22.407Z,101480.00
2023-01-27T01:58:50.110Z,101484.00
2023-01-27T02:01:20.013Z,101488.00
2023-01-27T02:03:52.091Z,101490.00
2023-01-27T02:06:20.483Z,101491.00
2023-01-27T02:08:49.666Z,101495.00
2023-01-27T02:11:17.471Z,101485.00
2023-01-27T02:13:45.423Z,101489.00
2023-01-27T02:16:14.075Z,101488.00
2023-01-27T02:18:44.315Z,101492.00
2023-01-27T02:21:12.004Z,101490.00
2023-01-27T02:23:55.397Z,101495.00
2023-01-27T02:26:27.470Z,101486.00
2023-01-27T02:28:57.355Z,101481.00
2023-01-27T02:31:25.609Z,101493.00
2023-01-27T02:33:58.628Z,101485.00
2023-01-27T02:36:28.560Z,101498.00
2023-01-27T02:38:58.721Z,101495.00
2023-01-27T02:41:33.412Z,101501.00
2023-01-27T02:44:01.897Z,101494.00
2023-01-27T02:46:29.803Z,101487.00
2023-01-27T02:48:57.494Z,101487.00
2023-01-27T02:51:25.208Z,101488.00
2023-01-27T02:53:53.158Z,101490.00
2023-01-27T02:56:21.034Z,101493.00
2023-01-27T02:58:50.257Z,101509.00
2023-01-27T03:01:18.079Z,101510.00
2023-01-27T03:03:47.222Z,101511.00
2023-01-27T03:06:15.108Z,101513.00
2023-01-27T03:08:43.167Z,101516.00
2023-01-27T03:11:11.931Z,101512.00
2023-01-27T03:13:40.083Z,101508.00
2023-01-27T03:16:26.997Z,101508.00
2023-01-27T03:18:56.404Z,101514.00
2023-01-27T03:21:24.129Z,101512.00
2023-01-27T03:23:51.783Z,101513.00
2023-01-27T03:26:19.447Z,101521.00
2023-01-27T03:29:07.592Z,101518.00
2023-01-27T03:31:36.670Z,101523.00
2023-01-27T03:34:04.397Z,101512.00
2023-01-27T03:36:49.568Z,101519.00
2023-01-27T03:39:34.817Z,101524.00
2023-01-27T03:42:20.247Z,101511.00
2023-01-27T03:45:05.540Z,101525.00
2023-01-27T03:47:34.563Z,101523.00
2023-01-27T03:50:02.213Z,101527.00
2023-01-27T03:52:29.858Z,101517.00
2023-01-27T03:54:57.528Z,101524.00
2023-01-27T03:57:25.235Z,101518.00
2023-01-27T03:59:52.935Z,101520.00
2023-01-27T04:02:38.263Z,101523.00
2023-01-27T04:05:25.940Z,101529.00
2023-01-27T04:07:53.602Z,101524.00
2023-01-27T04:10:21.221Z,101515.00
2023-01-27T04:12:48.401Z,101520.00
2023-01-27T04:15:17.300Z,101515.00
2023-01-27T04:17:44.978Z,101524.00
2023-01-27T04:20:14.463Z,101531.00
2023-01-27T04:22:42.184Z,101527.00
2023-01-27T04:25:13.203Z,101532.00
2023-01-27T04:27:42.158Z,101537.00
2023-01-27T04:30:11.249Z,101542.00
2023-01-27T04:32:38.877Z,101547.00
2023-01-27T04:35:07.153Z,101544.00
2023-01-27T04:37:36.156Z,101529.00
2023-01-27T04:40:03.801Z,101540.00
2023-01-27T04:42:31.463Z,101550.00
2023-01-27T04:44:59.222Z,101549.00
2023-01-27T04:47:26.854Z,101548.00
2023-01-27T04:49:54.542Z,101562.00
2023-01-27T04:52:22.186Z,101563.00
2023-01-27T04:54:51.213Z,101562.00
2023-01-27T04:57:18.912Z,101559.00
2023-01-27T04:59:46.585Z,101553.00
2023-01-27T05:02:14.310Z,101567.00
2023-01-27T05:04:41.990Z,101556.00
2023-01-27T05:07:10.616Z,101573.00
2023-01-27T05:09:38.249Z,101575.00
2023-01-27T05:12:07.655Z,101566.00
2023-01-27T05:14:35.333Z,101575.00
2023-01-27T05:17:03.072Z,101585.00
2023-01-27T05:19:30.740Z,101579.00
2023-01-27T05:21:58.742Z,101586.00
2023-01-27T05:24:26.453Z,101586.00
2023-01-27T05:26:54.380Z,101594.00
2023-01-27T05:29:23.455Z,101592.00
2023-01-27T05:31:51.183Z,101594.00
2023-01-27T05:34:19.126Z,101601.00
2023-01-27T05:36:46.856Z,101592.00
2023-01-27T05:39:14.568Z,101602.00
2023-01-27T05:41:42.522Z,101602.00
2023-01-27T05:44:13.026Z,101600.00
2023-01-27T05:46:43.334Z,101595.00
2023-01-27T05:49:11.040Z,101596.00
2023-01-27T05:51:40.633Z,101601.00
2023-01-27T05:54:08.825Z,101613.00
2023-01-27T05:56:36.644Z,101613.00
2023-01-27T05:59:04.295Z,101619.00
2023-01-27T06:01:33.525Z,101618.00
2023-01-27T06:04:02.817Z,101622.00
2023-01-27T06:06:32.337Z,101638.00
2023-01-27T06:09:00.394Z,101627.00
2023-01-27T06:11:28.032Z,101634.00
2023-01-27T06:13:55.948Z,101637.00
2023-01-27T06:16:24.709Z,101640.00
2023-01-27T06:18:52.726Z,101632.00
2023-01-27T06:21:21.725Z,101635.00
2023-01-27T06:23:59.771Z,101644.00
2023-01-27T06:26:27.683Z,101646.00
2023-01-27T06:28:56.981Z,101648.00
2023-01-27T06:31:24.954Z,101628.00
2023-01-27T06:33:52.726Z,101644.00
2023-01-27T06:36:23.026Z,101636.00
2023-01-27T06:38:51.109Z,101648.00
2023-01-27T06:41:19.177Z,101648.00
2023-01-27T06:43:46.873Z,101649.00
2023-01-27T06:46:14.976Z,101635.00
2023-01-27T06:48:42.910Z,101643.00
2023-01-27T06:51:10.834Z,101643.00
2023-01-27T06:53:39.825Z,101642.00
2023-01-27T06:56:08.418Z,101658.00
2023-01-27T06:58:36.176Z,101653.00
2023-01-27T07:01:06.402Z,101648.00
2023-01-27T07:06:01.023Z,101655.00
2023-01-27T07:08:28.828Z,101655.00
2023-01-27T07:10:58.193Z,101668.00
2023-01-27T07:13:25.849Z,101668.00
2023-01-27T07:15:56.085Z,101661.00
2023-01-27T07:18:24.212Z,101677.00
2023-01-27T07:20:51.943Z,101682.00
2023-01-27T07:23:19.936Z,101683.00
2023-01-27T07:25:47.939Z,101678.00
2023-01-27T07:28:16.988Z,101685.00
2023-01-27T07:30:44.742Z,101684.00
2023-01-27T07:33:13.920Z,101699.00
2023-01-27T07:35:42.918Z,101705.00
2023-01-27T07:38:11.142Z,101697.00
2023-01-27T07:40:38.794Z,101707.00
2023-01-27T07:43:06.464Z,101706.00
2023-01-27T07:45:35.627Z,101703.00
2023-01-27T07:48:04.528Z,101701.00
2023-01-27T07:50:32.385Z,101698.00
2023-01-27T07:53:01.759Z,101707.00
2023-01-27T07:55:30.093Z,101692.00
2023-01-27T07:57:58.887Z,101712.00
2023-01-27T08:00:28.114Z,101714.00
2023-01-27T08:02:57.999Z,101717.00
2023-01-27T08:05:26.051Z,101722.00
2023-01-27T08:07:57.141Z,101728.00
2023-01-27T08:10:26.247Z,101731.00
2023-01-27T08:12:53.977Z,101736.00
2023-01-27T08:15:22.667Z,101734.00
2023-01-27T08:17:54.938Z,101745.00
2023-01-27T08:20:24.482Z,101756.00
2023-01-27T08:22:52.427Z,101753.00
2023-01-27T08:25:20.719Z,101752.00
2023-01-27T08:27:50.983Z,101742.00
2023-01-27T08:30:19.447Z,101757.00
2023-01-27T08:32:47.784Z,101759.00
2023-01-27T08:35:15.660Z,101760.00
2023-01-27T08:37:45.773Z,101754.00
2023-01-27T08:40:15.698Z,101757.00
2023-01-27T08:42:43.534Z,101768.00
2023-01-27T08:45:11.542Z,101759.00
2023-01-27T08:47:39.208Z,101772.00
2023-01-27T08:50:08.304Z,101766.00
2023-01-27T08:52:35.940Z,101777.00
2023-01-27T08:55:05.461Z,101772.00
2023-01-27T08:57:36.487Z,101778.00
2023-01-27T09:00:05.662Z,101780.00
2023-01-27T09:02:33.396Z,101773.00
2023-01-27T09:05:01.215Z,101777.00
2023-01-27T09:07:28.909Z,101781.00
2023-01-27T09:10:19.982Z,101775.00
2023-01-27T09:12:46.344Z,101793.00
2023-01-27T09:15:15.722Z,101796.00
2023-01-27T09:17:43.424Z,101795.00
2023-01-27T09:20:12.986Z,101812.00
2023-01-27T09:22:41.692Z,101799.00
2023-01-27T09:25:13.344Z,101808.00
2023-01-27T09:27:41.029Z,101801.00
2023-01-27T09:30:12.963Z,101796.00
2023-01-27T09:32:41.019Z,101806.00
2023-01-27T09:35:09.583Z,101820.00
2023-01-27T09:37:42.345Z,101812.00
2023-01-27T09:40:17.840Z,101797.00
2023-01-27T09:43:03.198Z,101803.00
2023-01-27T09:45:44.973Z,101809.00
2023-01-27T09:48:29.042Z,101820.00
2023-01-27T09:51:04.102Z,101811.00
2023-01-27T09:53:56.796Z,101818.00
2023-01-27T09:56:45.167Z,101821.00
2023-01-27T09:59:29.819Z,101815.00
2023-01-27T10:02:11.093Z,101816.00
2023-01-27T10:05:00.222Z,101822.00
2023-01-27T10:07:42.687Z,101820.00
2023-01-27T10:10:33.958Z,101816.00
2023-01-27T10:13:19.065Z,101808.00
2023-01-27T10:16:08.223Z,101821.00
2023-01-27T10:18:55.648Z,101814.00
2023-01-27T10:21:32.985Z,101807.00
2023-01-27T10:24:08.257Z,101810.00
2023-01-27T10:26:42.175Z,101800.00
2023-01-27T10:29:12.904Z,101804.00
2023-01-27T10:31:49.446Z,101803.00
2023-01-27T10:34:28.130Z,101817.00
2023-01-27T10:37:20.514Z,101802.00
2023-01-27T10:39:57.286Z,101815.00
2023-01-27T10:42:32.641Z,101816.00
2023-01-27T10:45:14.169Z,101819.00
2023-01-27T10:47:59.303Z,101823.00
2023-01-27T10:50:34.942Z,101836.00
2023-01-27T10:53:11.243Z,101823.00
2023-01-27T10:55:44.883Z,101825.00
2023-01-27T10:58:18.115Z,101824.00
2023-01-27T11:01:20.506Z,101834.00
2023-01-27T11:03:43.094Z,101823.00
2023-01-27T11:06:16.409Z,101818.00
2023-01-27T11:08:48.537Z,101816.00
2023-01-27T11:11:36.221Z,101820.00
2023-01-27T11:14:19.961Z,101823.00
2023-01-27T11:16:50.741Z,101824.00
2023-01-27T11:19:27.113Z,101822.00
2023-01-27T11:22:07.105Z,101830.00
2023-01-27T11:24:45.114Z,101824.00
2023-01-27T11:27:20.824Z,101818.00
2023-01-27T11:29:55.050Z,101818.00
2023-01-27T11:32:33.885Z,101815.00
2023-01-27T11:35:05.539Z,101823.00
2023-01-27T11:37:38.638Z,101812.00
2023-01-27T11:40:16.042Z,101815.00
2023-01-27T11:42:44.311Z,101821.00
2023-01-27T11:45:16.488Z,101825.00
2023-01-27T11:47:45.288Z,101813.00
2023-01-27T11:50:16.425Z,101817.00
2023-01-27T11:52:49.487Z,101806.00
2023-01-27T11:55:21.202Z,101817.00
2023-01-27T11:57:54.694Z,101817.00
2023-01-27T12:00:25.882Z,101810.00
2023-01-27T12:03:02.291Z,101813.00
2023-01-27T12:05:32.870Z,101822.00
2023-01-27T12:08:03.619Z,101814.00
2023-01-27T12:10:33.938Z,101804.00
2023-01-27T12:13:08.272Z,101798.00
2023-01-27T12:15:37.208Z,101805.00
2023-01-27T12:18:12.691Z,101798.00
2023-01-27T12:20:43.440Z,101802.00
2023-01-27T12:23:23.579Z,101803.00
2023-01-27T12:25:55.205Z,101800.00
2023-01-27T12:28:27.102Z,101793.00
2023-01-27T12:30:58.819Z,101795.00
2023-01-27T12:33:31.344Z,101798.00
2023-01-27T12:36:01.386Z,101797.00
2023-01-27T12:38:35.364Z,101792.00
2023-01-27T12:41:05.529Z,101800.00
2023-01-27T12:43:33.327Z,101792.00
2023-01-27T12:46:07.113Z,101802.00
2023-01-27T12:48:45.092Z,101785.00
2023-01-27T12:51:17.549Z,101796.00
2023-01-27T12:53:48.510Z,101793.00
2023-01-27T12:56:18.643Z,101798.00
2023-01-27T12:58:48.872Z,101790.00
2023-01-27T13:01:31.608Z,101781.00
2023-01-27T13:04:02.198Z,101789.00
2023-01-27T13:06:42.261Z,101797.00
2023-01-27T13:09:24.778Z,101785.00
2023-01-27T13:11:53.348Z,101795.00
2023-01-27T13:14:21.322Z,101791.00
2023-01-27T13:16:53.947Z,101804.00
2023-01-27T13:19:28.305Z,101799.00
2023-01-27T13:21:56.492Z,101804.00
2023-01-27T13:24:37.757Z,101800.00
2023-01-27T13:27:10.073Z,101791.00
2023-01-27T13:29:40.053Z,101794.00
2023-01-27T13:32:12.558Z,101801.00
2023-01-27T13:34:45.039Z,101795.00
2023-01-27T13:37:17.216Z,101800.00
2023-01-27T13:39:56.192Z,101802.00
2023-01-27T13:42:29.605Z,101801.00
2023-01-27T13:45:02.085Z,101794.00
2023-01-27T13:47:34.685Z,101799.00
2023-01-27T13:50:08.183Z,101797.00
2023-01-27T13:52:38.171Z,101784.00
2023-01-27T13:55:12.823Z,101809.00
2023-01-27T13:58:01.468Z,101803.00
2023-01-27T14:00:38.937Z,101803.00
2023-01-27T14:03:40.298Z,101813.00
2023-01-27T14:06:24.247Z,101817.00
2023-01-27T14:09:02.824Z,101815.00
2023-01-27T14:11:37.365Z,101804.00
2023-01-27T14:14:23.655Z,101824.00
2023-01-27T14:17:06.325Z,101823.00
2023-01-27T14:19:47.620Z,101815.00
2023-01-27T14:22:28.425Z,101832.00
2023-01-27T14:25:02.338Z,101823.00
2023-01-27T14:27:36.911Z,101828.00
2023-01-27T14:30:11.951Z,101827.00
2023-01-27T14:32:45.949Z,101827.00
2023-01-27T14:35:33.044Z,101832.00
2023-01-27T14:38:10.804Z,101843.00
2023-01-27T14:40:46.720Z,101848.00
2023-01-27T14:43:26.227Z,101839.00
2023-01-27T14:46:00.226Z,101832.00
2023-01-27T14:48:44.162Z,101837.00
2023-01-27T14:51:28.442Z,101837.00
2023-01-27T14:54:10.017Z,101846.00
2023-01-27T14:56:45.521Z,101849.00
2023-01-27T14:59:27.047Z,101851.00
2023-01-27T15:02:01.815Z,101859.00
2023-01-27T15:04:37.974Z,101857.00
2023-01-27T15:07:14.269Z,101869.00
2023-01-27T15:09:51.248Z,101864.00
2023-01-27T15:12:38.575Z,101863.00
2023-01-27T15:15:28.294Z,101865.00
2023-01-27T15:18:09.078Z,101874.00
2023-01-27T15:20:51.090Z,101873.00
2023-01-27T15:23:36.688Z,101860.00
2023-01-27T15:26:07.300Z,101878.00
2023-01-27T15:28:39.662Z,101865.00
2023-01-27T15:31:23.888Z,101887.00
2023-01-27T15:33:55.486Z,101878.00
2023-01-27T15:39:00.732Z,101887.00
2023-01-27T15:41:29.008Z,101880.00
2023-01-27T15:44:16.372Z,101887.00
2023-01-27T15:46:48.278Z,101899.00
2023-01-27T15:49:20.333Z,101892.00
2023-01-27T15:51:50.517Z,101900.00
2023-01-27T15:54:23.423Z,101910.00
2023-01-27T15:56:53.651Z,101903.00
2023-01-27T15:59:25.113Z,101905.00
2023-01-27T16:02:05.221Z,101904.00
2023-01-27T16:04:33.679Z,101903.00
2023-01-27T16:07:03.863Z,101908.00
2023-01-27T16:09:37.233Z,101911.00
2023-01-27T16:12:08.105Z,101911.00
2023-01-27T16:14:44.598Z,101915.00
2023-01-27T16:17:20.974Z,101920.00
2023-01-27T16:19:57.156Z,101915.00
2023-01-27T16:22:26.685Z,101918.00
2023-01-27T16:24:56.816Z,101912.00
2023-01-27T16:27:40.645Z,101919.00
2023-01-27T16:30:14.775Z,101924.00
2023-01-27T16:32:55.258Z,101922.00
2023-01-27T16:35:23.438Z,101918.00
2023-01-27T16:38:04.099Z,101917.00
2023-01-27T16:40:34.414Z,101922.00
2023-01-27T16:43:07.209Z,101925.00
2023-01-27T16:45:44.928Z,101924.00
2023-01-27T16:48:24.948Z,101925.00
2023-01-27T16:50:54.986Z,101938.00
2023-01-27T16:53:24.798Z,101928.00
2023-01-27T16:55:57.435Z,101946.00
2023-01-27T16:58:39.834Z,101943.00
2023-01-27T17:01:21.324Z,101942.00
2023-01-27T17:03:51.259Z,101951.00
2023-01-27T17:06:19.289Z,101960.00
2023-01-27T17:08:48.739Z,101939.00
2023-01-27T17:11:23.586Z,101953.00
2023-01-27T17:13:57.077Z,101963.00
2023-01-27T17:16:27.246Z,101949.00
2023-01-27T17:19:02.170Z,101954.00
2023-01-27T17:21:34.085Z,101953.00
2023-01-27T17:24:05.533Z,101968.00
2023-01-27T17:26:35.059Z,101964.00
2023-01-27T17:29:02.954Z,101970.00
2023-01-27T17:31:39.280Z,101965.00
2023-01-27T17:34:17.196Z,101976.00
2023-01-27T17:37:06.300Z,101979.00
2023-01-27T17:39:34.095Z,101986.00
2023-01-27T17:42:01.848Z,101991.00
2023-01-27T17:44:29.592Z,101986.00
2023-01-27T17:47:00.765Z,101990.00
2023-01-27T17:49:31.533Z,101982.00
2023-01-27T17:52:00.332Z,101984.00
2023-01-27T17:54:31.102Z,101992.00
2023-01-27T17:57:05.303Z,101983.00
2023-01-27T17:59:34.300Z,101989.00
2023-01-27T18:02:09.251Z,101994.00
2023-01-27T18:04:42.642Z,101991.00
2023-01-27T18:07:11.732Z,102000.00
2023-01-27T18:09:44.936Z,102004.00
2023-01-27T18:12:28.871Z,102002.00
2023-01-27T18:14:56.547Z,102021.00
2023-01-27T18:17:27.507Z,102012.00
2023-01-27T18:19:57.797Z,102001.00
2023-01-27T18:22:27.087Z,102009.00
2023-01-27T18:24:57.120Z,102011.00
2023-01-27T18:27:28.393Z,102011.00
2023-01-27T18:30:02.073Z,102013.00
2023-01-27T18:32:40.193Z,102014.00
2023-01-27T18:35:25.480Z,102016.00
2023-01-27T18:37:55.997Z,102014.00
2023-01-27T18:40:28.715Z,102021.00
2023-01-27T18:42:57.590Z,102023.00
2023-01-27T18:45:25.489Z,102020.00
2023-01-27T18:47:53.532Z,102026.00
2023-01-27T18:50:23.913Z,102023.00
2023-01-27T18:52:52.602Z,102021.00
2023-01-27T18:55:22.591Z,102025.00
2023-01-27T18:57:51.802Z,102024.00
2023-01-27T19:00:21.780Z,102034.00
2023-01-27T19:02:51.984Z,102019.00
2023-01-27T19:05:23.813Z,102035.00
2023-01-27T19:07:51.489Z,102035.00
2023-01-27T19:10:24.685Z,102031.00
2023-01-27T19:12:52.533Z,102019.00
2023-01-27T19:15:23.777Z,102023.00
2023-01-27T19:17:52.866Z,102024.00
2023-01-27T19:20:23.663Z,102027.00
2023-01-27T19:22:53.501Z,102023.00
2023-01-27T19:25:21.754Z,102026.00
2023-01-27T19:27:52.478Z,102018.00
2023-01-27T19:30:25.011Z,102030.00
2023-01-27T19:32:53.486Z,102013.00
2023-01-27T19:35:21.259Z,102019.00
2023-01-27T19:37:51.184Z,102018.00
2023-01-27T19:40:20.456Z,102023.00
2023-01-27T19:42:48.564Z,102026.00
2023-01-27T19:45:18.455Z,102026.00
2023-01-27T19:47:49.010Z,102017.00
2023-01-27T19:50:19.937Z,102023.00
2023-01-27T19:52:47.661Z,102029.00
2023-01-27T19:55:16.882Z,102025.00
2023-01-27T19:57:45.353Z,102029.00
2023-01-27T20:00:23.283Z,102024.00
2023-01-27T20:02:51.573Z,102028.00
2023-01-27T20:05:19.608Z,102035.00
2023-01-27T20:07:48.909Z,102045.00
2023-01-27T20:10:20.842Z,102043.00
2023-01-27T20:12:54.772Z,102042.00
2023-01-27T20:15:24.246Z,102047.00
2023-01-27T20:17:52.538Z,102040.00
2023-01-27T20:20:20.829Z,102043.00
2023-01-27T20:22:49.289Z,102037.00
2023-01-27T20:25:20.311Z,102042.00
2023-01-27T20:27:50.359Z,102034.00
2023-01-27T20:30:18.909Z,102035.00
2023-01-27T20:32:47.090Z,102048.00
2023-01-27T20:35:16.936Z,102044.00
2023-01-27T20:37:45.010Z,102047.00
2023-01-27T20:40:15.497Z,102047.00
2023-01-27T20:42:44.657Z,102044.00
2023-01-27T20:45:13.735Z,102044.00
2023-01-27T20:47:42.195Z,102041.00
2023-01-27T20:50:11.589Z,102042.00
2023-01-27T20:52:40.035Z,102048.00
2023-01-27T20:55:09.472Z,102048.00
2023-01-27T20:57:37.267Z,102047.00
2023-01-27T21:00:07.582Z,102055.00
2023-01-27T21:02:35.616Z,102062.00
2023-01-27T21:05:03.407Z,102062.00
2023-01-27T21:07:31.164Z,102069.00
2023-01-27T21:09:59.894Z,102064.00
2023-01-27T21:12:29.418Z,102052.00
2023-01-27T21:14:57.231Z,102057.00
2023-01-27T21:17:26.275Z,102054.00
2023-01-27T21:19:54.019Z,102057.00
2023-01-27T21:22:21.704Z,102054.00
2023-01-27T21:24:49.345Z,102057.00
2023-01-27T21:27:17.130Z,102048.00
2023-01-27T21:29:45.024Z,102055.00
2023-01-27T21:32:12.717Z,102062.00
2023-01-27T21:34:41.784Z,102053.00
2023-01-27T21:37:15.383Z,101998.00
2023-01-27T21:39:43.042Z,102044.00
2023-01-27T21:42:30.863Z,102040.00
2023-01-27T21:45:15.599Z,102041.00
2023-01-27T21:47:43.752Z,102038.00
2023-01-27T21:50:14.556Z,102040.00
2023-01-27T21:52:44.832Z,102039.00
2023-01-27T21:55:14.897Z,102047.00
2023-01-27T21:57:44.812Z,102037.00
2023-01-27T22:00:15.000Z,102043.00
2023-01-27T22:02:43.293Z,102043.00
2023-01-27T22:05:13.443Z,102044.00
2023-01-27T22:07:41.679Z,102049.00
2023-01-27T22:10:14.644Z,102047.00
2023-01-27T22:12:42.394Z,102030.00
2023-01-27T22:15:11.549Z,102026.00
2023-01-27T22:17:39.365Z,102028.00
2023-01-27T22:20:08.309Z,102025.00
2023-01-27T22:22:37.344Z,102027.00
2023-01-27T22:25:05.612Z,102017.00
2023-01-27T22:27:33.270Z,102022.00
2023-01-27T22:30:00.923Z,102025.00
2023-01-27T22:32:28.632Z,102022.00
2023-01-27T22:34:56.362Z,102011.00
2023-01-27T22:37:23.984Z,102005.00
2023-01-27T22:39:52.998Z,102012.00
2023-01-27T22:42:20.619Z,102005.00
2023-01-27T22:44:48.253Z,102009.00
2023-01-27T22:47:15.886Z,101999.00
2023-01-27T22:49:43.514Z,101995.00
2023-01-27T22:52:11.225Z,101990.00
2023-01-27T22:54:38.902Z,101986.00
2023-01-27T22:57:08.529Z,101987.00
2023-01-27T22:59:36.282Z,101992.00
2023-01-27T23:02:03.939Z,101994.00
2023-01-27T23:04:31.610Z,101992.00
2023-01-27T23:06:59.388Z,102004.00
2023-01-27T23:09:27.160Z,101999.00
2023-01-27T23:11:55.006Z,102011.00
2023-01-27T23:14:23.990Z,102004.00
2023-01-27T23:16:52.800Z,102009.00
2023-01-27T23:19:21.872Z,101997.00
2023-01-27T23:21:49.673Z,101993.00
2023-01-27T23:24:17.390Z,102005.00
2023-01-27T23:26:45.073Z,101995.00
2023-01-27T23:29:24.152Z,102012.00
2023-01-27T23:31:54.689Z,102011.00
2023-01-27T23:34:22.648Z,102009.00
2023-01-27T23:36:50.497Z,102005.00
2023-01-27T23:39:18.490Z,102011.00
2023-01-27T23:41:46.143Z,102014.00
2023-01-27T23:44:14.193Z,102010.00
2023-01-27T23:46:43.258Z,102016.00
2023-01-27T23:49:12.764Z,102030.00
2023-01-27T23:51:40.604Z,102019.00
2023-01-27T23:54:08.295Z,102019.00
2023-01-27T23:56:36.312Z,102027.00
2023-01-27T23:59:04.205Z,102019.00
